createdAt,value
2023-02-28T00:01:21.507Z,5.33
2023-02-28T00:03:48.486Z,5.33
2023-02-28T00:06:15.725Z,4.67
2023-02-28T00:08:42.749Z,4.33
2023-02-28T00:11:13.044Z,4.00
2023-02-28T00:13:47.752Z,8.00
2023-02-28T00:16:21.014Z,7.33
2023-02-28T00:18:49.191Z,6.00
2023-02-28T00:21:17.659Z,7.33
2023-02-28T00:23:45.143Z,4.00
2023-02-28T00:26:12.192Z,1.00
2023-02-28T00:28:39.227Z,1.33
2023-02-28T00:31:06.332Z,4.00
2023-02-28T00:33:33.322Z,4.00
2023-02-28T00:36:05.448Z,2.67
2023-02-28T00:38:32.918Z,2.00
2023-02-28T00:41:05.809Z,1.00
2023-02-28T00:43:37.628Z,5.00
2023-02-28T00:46:05.657Z,5.67
2023-02-28T00:48:33.167Z,4.33
2023-02-28T00:51:00.386Z,4.00
2023-02-28T00:53:27.334Z,2.00
2023-02-28T00:55:54.770Z,2.00
2023-02-28T00:58:21.847Z,1.00
2023-02-28T01:00:50.436Z,1.00
2023-02-28T01:03:19.723Z,1.00
2023-02-28T01:05:47.623Z,1.00
2023-02-28T01:08:15.691Z,3.33
2023-02-28T01:10:43.455Z,1.00
2023-02-28T01:13:10.495Z,2.00
2023-02-28T01:15:37.511Z,1.00
2023-02-28T01:18:04.520Z,1.00
2023-02-28T01:20:31.390Z,2.00
2023-02-28T01:22:58.948Z,4.00
2023-02-28T01:25:25.930Z,2.00
2023-02-28T01:27:53.433Z,2.00
2023-02-28T01:30:20.475Z,2.00
2023-02-28T01:32:47.491Z,1.00
2023-02-28T01:35:14.447Z,1.00
2023-02-28T01:37:41.411Z,2.00
2023-02-28T01:40:09.067Z,2.00
2023-02-28T01:42:36.058Z,1.00
2023-02-28T01:45:20.450Z,2.00
2023-02-28T01:47:51.752Z,4.00
2023-02-28T01:50:23.217Z,4.00
2023-02-28T01:52:53.141Z,3.33
2023-02-28T01:55:22.758Z,14.67
2023-02-28T01:57:58.150Z,19.33
2023-02-28T02:00:28.651Z,14.00
2023-02-28T02:03:00.181Z,18.67
2023-02-28T02:05:32.284Z,17.67
2023-02-28T02:08:12.790Z,20.00
2023-02-28T02:11:05.476Z,15.33
2023-02-28T02:13:56.304Z,13.67
2023-02-28T02:17:02.257Z,17.33
2023-02-28T02:20:02.474Z,22.33
2023-02-28T02:23:16.423Z,16.00
2023-02-28T02:26:00.156Z,13.67
2023-02-28T02:29:08.290Z,15.33
2023-02-28T02:31:44.830Z,13.00
2023-02-28T02:34:42.664Z,14.00
2023-02-28T02:37:36.228Z,19.00
2023-02-28T02:40:12.666Z,18.67
2023-02-28T02:42:49.822Z,15.33
2023-02-28T02:45:39.676Z,16.67
2023-02-28T02:48:14.284Z,19.00
2023-02-28T02:50:54.050Z,28.00
2023-02-28T02:53:30.822Z,21.33
2023-02-28T02:56:00.977Z,18.67
2023-02-28T02:58:33.665Z,21.00
2023-02-28T03:01:05.043Z,22.33
2023-02-28T03:03:34.503Z,17.00
2023-02-28T03:06:02.885Z,17.00
2023-02-28T03:08:34.931Z,13.67
2023-02-28T03:11:05.855Z,14.00
2023-02-28T03:13:47.951Z,21.33
2023-02-28T03:16:25.130Z,24.33
2023-02-28T03:19:01.160Z,23.67
2023-02-28T03:21:46.583Z,17.00
2023-02-28T03:24:24.640Z,17.33
2023-02-28T03:27:02.601Z,16.67
2023-02-28T03:29:33.769Z,18.67
2023-02-28T03:32:34.774Z,17.00
2023-02-28T03:35:23.042Z,18.33
2023-02-28T03:37:56.764Z,12.33
2023-02-28T03:40:29.187Z,18.33
2023-02-28T03:43:03.718Z,16.00
2023-02-28T03:45:37.062Z,19.00
2023-02-28T03:48:14.952Z,21.67
2023-02-28T03:50:45.541Z,16.67
2023-02-28T03:53:15.444Z,16.00
2023-02-28T03:55:49.839Z,14.67
2023-02-28T03:58:22.726Z,17.00
2023-02-28T04:00:59.053Z,7.00
2023-02-28T04:03:26.331Z,12.33
2023-02-28T04:05:58.310Z,17.67
2023-02-28T04:08:25.312Z,11.00
2023-02-28T04:11:04.688Z,10.67
2023-02-28T04:13:31.645Z,15.33
2023-02-28T04:15:59.120Z,8.00
2023-02-28T04:18:29.107Z,12.67
2023-02-28T04:20:56.040Z,16.00
2023-02-28T04:23:23.049Z,10.67
2023-02-28T04:25:52.294Z,8.00
2023-02-28T04:28:19.318Z,12.00
2023-02-28T04:30:46.201Z,16.67
2023-02-28T04:33:13.185Z,15.00
2023-02-28T04:35:40.187Z,14.67
2023-02-28T04:38:07.188Z,13.33
2023-02-28T04:40:34.080Z,16.00
2023-02-28T04:43:00.985Z,19.00
2023-02-28T04:45:31.297Z,19.00
2023-02-28T04:47:58.227Z,13.33
2023-02-28T04:50:25.535Z,12.00
2023-02-28T04:52:52.488Z,15.33
2023-02-28T04:55:19.633Z,18.00
2023-02-28T04:57:46.686Z,16.67
2023-02-28T05:00:16.536Z,22.67
2023-02-28T05:02:43.726Z,18.33
2023-02-28T05:05:10.742Z,18.33
2023-02-28T05:07:37.661Z,28.67
2023-02-28T05:10:06.425Z,22.00
2023-02-28T05:12:33.405Z,26.33
2023-02-28T05:15:00.381Z,31.00
2023-02-28T05:17:27.277Z,22.00
2023-02-28T05:19:57.156Z,23.33
2023-02-28T05:22:27.995Z,27.33
2023-02-28T05:24:54.876Z,25.00
2023-02-28T05:27:21.813Z,16.67
2023-02-28T05:29:48.913Z,27.33
2023-02-28T05:32:16.087Z,26.67
2023-02-28T05:34:43.494Z,37.00
2023-02-28T05:37:14.356Z,19.67
2023-02-28T05:39:41.324Z,27.00
2023-02-28T05:42:08.580Z,24.50
2023-02-28T05:44:35.549Z,25.00
2023-02-28T05:47:02.662Z,31.67
2023-02-28T05:49:29.584Z,28.00
2023-02-28T05:51:56.534Z,22.00
2023-02-28T05:54:23.658Z,25.67
2023-02-28T05:56:50.594Z,29.33
2023-02-28T05:59:17.541Z,30.25
2023-02-28T06:01:49.504Z,32.00
2023-02-28T06:04:31.191Z,27.00
2023-02-28T06:06:59.506Z,35.00
2023-02-28T06:09:26.527Z,34.00
2023-02-28T06:11:53.528Z,33.75
2023-02-28T06:14:21.658Z,40.50
2023-02-28T06:16:49.049Z,33.25
2023-02-28T06:19:16.715Z,42.50
2023-02-28T06:21:44.085Z,43.25
2023-02-28T06:24:11.453Z,40.50
2023-02-28T06:26:38.373Z,34.50
2023-02-28T06:29:05.393Z,39.50
2023-02-28T06:31:32.730Z,35.50
2023-02-28T06:33:59.867Z,30.50
2023-02-28T06:36:26.778Z,39.33
2023-02-28T06:38:55.927Z,39.00
2023-02-28T06:41:28.231Z,39.50
2023-02-28T06:43:55.740Z,44.25
2023-02-28T06:46:23.038Z,46.00
2023-02-28T06:48:50.856Z,41.75
2023-02-28T06:51:25.462Z,44.00
2023-02-28T06:53:52.623Z,39.25
2023-02-28T06:56:21.496Z,41.00
2023-02-28T06:58:50.093Z,43.50
2023-02-28T07:01:17.735Z,40.25
2023-02-28T07:03:44.680Z,45.00
2023-02-28T07:06:11.769Z,40.33
2023-02-28T07:08:38.876Z,36.00
2023-02-28T07:11:06.009Z,38.75
2023-02-28T07:13:33.192Z,31.33
2023-02-28T07:16:02.446Z,37.00
2023-02-28T07:18:29.825Z,29.00
2023-02-28T07:20:57.190Z,40.00
2023-02-28T07:23:24.466Z,41.33
2023-02-28T07:25:52.540Z,39.33
2023-02-28T07:28:19.570Z,35.00
2023-02-28T07:30:46.653Z,38.33
2023-02-28T07:33:13.606Z,34.67
2023-02-28T07:35:40.637Z,39.33
2023-02-28T07:38:08.789Z,29.33
2023-02-28T07:40:39.326Z,27.33
2023-02-28T07:43:06.508Z,35.33
2023-02-28T07:45:35.667Z,33.00
2023-02-28T07:48:03.480Z,35.67
2023-02-28T07:50:32.016Z,34.00
2023-02-28T07:53:00.265Z,36.33
2023-02-28T07:55:27.685Z,31.67
2023-02-28T07:57:55.094Z,35.67
2023-02-28T08:00:22.883Z,39.67
2023-02-28T08:02:49.898Z,33.67
2023-02-28T08:05:17.115Z,29.33
2023-02-28T08:07:44.120Z,38.00
2023-02-28T08:10:11.670Z,26.00
2023-02-28T08:12:38.577Z,24.33
2023-02-28T08:15:05.967Z,33.67
2023-02-28T08:17:35.078Z,29.33
2023-02-28T08:20:02.398Z,25.33
2023-02-28T08:22:29.305Z,33.67
2023-02-28T08:24:56.235Z,22.00
2023-02-28T08:27:23.149Z,30.33
2023-02-28T08:29:50.101Z,29.33
2023-02-28T08:32:28.842Z,25.33
2023-02-28T08:34:56.878Z,32.33
2023-02-28T08:37:23.761Z,24.00
2023-02-28T08:39:50.741Z,22.00
2023-02-28T08:42:17.711Z,31.67
2023-02-28T08:44:44.752Z,33.67
2023-02-28T08:47:11.718Z,31.00
2023-02-28T08:49:38.914Z,27.33
2023-02-28T08:52:05.935Z,32.33
2023-02-28T08:54:34.465Z,26.67
2023-02-28T08:57:01.468Z,19.00
2023-02-28T08:59:30.090Z,18.33
2023-02-28T09:01:57.009Z,28.00
2023-02-28T09:04:25.405Z,31.00
2023-02-28T09:06:52.481Z,28.00
2023-02-28T09:09:19.530Z,27.00
2023-02-28T09:11:46.459Z,21.67
2023-02-28T09:14:13.472Z,22.33
2023-02-28T09:16:42.814Z,22.33
2023-02-28T09:19:13.224Z,28.67
2023-02-28T09:21:40.253Z,22.33
2023-02-28T09:24:07.797Z,17.00
2023-02-28T09:26:42.823Z,25.00
2023-02-28T09:29:10.500Z,23.00
2023-02-28T09:31:37.434Z,20.33
2023-02-28T09:34:05.666Z,23.00
2023-02-28T09:36:44.651Z,26.67
2023-02-28T09:39:13.641Z,23.33
2023-02-28T09:41:52.107Z,29.67
2023-02-28T09:44:44.926Z,25.67
2023-02-28T09:47:36.262Z,23.33
2023-02-28T09:50:36.703Z,20.00
2023-02-28T09:53:15.403Z,19.67
2023-02-28T09:55:56.402Z,28.33
2023-02-28T09:58:50.795Z,25.00
2023-02-28T10:01:32.169Z,22.33
2023-02-28T10:04:02.163Z,16.33
2023-02-28T10:06:42.446Z,25.00
2023-02-28T10:09:17.049Z,18.00
2023-02-28T10:14:18.950Z,23.67
2023-02-28T10:17:18.964Z,18.00
2023-02-28T10:20:01.985Z,21.25
2023-02-28T10:22:44.168Z,18.67
2023-02-28T10:25:23.925Z,22.00
2023-02-28T10:27:55.037Z,20.00
2023-02-28T10:30:21.993Z,15.50
2023-02-28T10:32:56.907Z,17.75
2023-02-28T10:35:26.898Z,22.50
2023-02-28T10:38:02.765Z,24.25
2023-02-28T10:40:38.515Z,28.00
2023-02-28T10:43:14.718Z,23.00
2023-02-28T10:45:56.642Z,20.25
2023-02-28T10:48:23.491Z,24.50
2023-02-28T10:50:53.702Z,26.25
2023-02-28T10:53:24.363Z,28.50
2023-02-28T10:56:26.401Z,25.67
2023-02-28T10:59:03.094Z,19.25
2023-02-28T11:01:50.071Z,24.75
2023-02-28T11:04:23.748Z,24.00
2023-02-28T11:07:02.285Z,22.75
2023-02-28T11:09:36.088Z,25.00
2023-02-28T11:12:10.233Z,24.67
2023-02-28T11:15:05.767Z,23.33
2023-02-28T11:17:34.426Z,23.00
2023-02-28T11:20:08.463Z,29.33
2023-02-28T11:22:40.272Z,18.75
2023-02-28T11:25:31.610Z,17.25
2023-02-28T11:28:10.549Z,17.00
2023-02-28T11:30:40.830Z,17.00
2023-02-28T11:33:32.250Z,15.00
2023-02-28T11:36:05.542Z,15.50
2023-02-28T11:38:36.819Z,12.50
2023-02-28T11:41:14.248Z,18.50
2023-02-28T11:43:59.789Z,21.50
2023-02-28T11:46:41.130Z,14.75
2023-02-28T11:49:33.896Z,24.25
2023-02-28T11:52:04.293Z,22.50
2023-02-28T11:54:49.549Z,24.00
2023-02-28T11:57:38.178Z,22.50
2023-02-28T12:00:30.819Z,22.50
2023-02-28T12:03:12.527Z,19.00
2023-02-28T12:05:47.530Z,19.75
2023-02-28T12:08:23.068Z,16.50
2023-02-28T12:11:08.723Z,14.75
2023-02-28T12:13:45.616Z,22.50
2023-02-28T12:16:29.063Z,26.50
2023-02-28T12:19:09.641Z,18.00
2023-02-28T12:21:54.668Z,22.75
2023-02-28T12:24:33.850Z,15.25
2023-02-28T12:27:04.705Z,17.00
2023-02-28T12:29:40.889Z,19.25
2023-02-28T12:32:23.156Z,22.00
2023-02-28T12:35:13.409Z,18.00
2023-02-28T12:37:47.364Z,18.50
2023-02-28T12:40:22.238Z,21.25
2023-02-28T12:42:55.523Z,17.00
2023-02-28T12:45:49.850Z,17.00
2023-02-28T12:48:25.275Z,18.00
2023-02-28T12:50:52.752Z,17.75
2023-02-28T12:53:51.341Z,19.75
2023-02-28T12:56:23.979Z,15.00
2023-02-28T12:58:56.836Z,18.75
2023-02-28T13:02:01.497Z,17.00
2023-02-28T13:04:40.387Z,16.50
2023-02-28T13:07:36.534Z,17.25
2023-02-28T13:10:08.756Z,10.00
2023-02-28T13:12:37.068Z,10.75
2023-02-28T13:15:25.296Z,19.00
2023-02-28T13:17:56.438Z,19.75
2023-02-28T13:20:27.427Z,18.75
2023-02-28T13:22:56.258Z,18.50
2023-02-28T13:25:23.216Z,19.00
2023-02-28T13:28:02.099Z,17.25
2023-02-28T13:30:57.164Z,15.25
2023-02-28T13:33:34.413Z,13.75
2023-02-28T13:36:18.674Z,19.00
2023-02-28T13:38:54.487Z,17.75
2023-02-28T13:41:31.056Z,13.25
2023-02-28T13:44:13.282Z,22.00
2023-02-28T13:46:49.820Z,14.25
2023-02-28T13:49:37.843Z,12.00
2023-02-28T13:52:07.927Z,16.00
2023-02-28T13:54:57.639Z,13.75
2023-02-28T13:57:36.648Z,11.25
2023-02-28T14:00:12.644Z,14.50
2023-02-28T14:02:58.121Z,13.25
2023-02-28T14:05:27.322Z,17.50
2023-02-28T14:07:58.156Z,18.25
2023-02-28T14:10:44.100Z,13.00
2023-02-28T14:13:19.663Z,12.75
2023-02-28T14:15:51.381Z,17.25
2023-02-28T14:18:21.121Z,15.75
2023-02-28T14:20:50.731Z,19.50
2023-02-28T14:23:46.925Z,21.00
2023-02-28T14:26:38.837Z,22.75
2023-02-28T14:29:11.263Z,16.00
2023-02-28T14:32:02.477Z,11.75
2023-02-28T14:37:38.643Z,15.25
2023-02-28T14:40:13.132Z,18.00
2023-02-28T14:42:42.980Z,16.75
2023-02-28T14:45:22.578Z,16.00
2023-02-28T14:47:52.631Z,14.75
2023-02-28T14:50:23.137Z,16.00
2023-02-28T14:52:54.612Z,19.00
2023-02-28T14:55:27.253Z,15.00
2023-02-28T14:57:59.428Z,19.50
2023-02-28T15:00:28.062Z,11.75
2023-02-28T15:02:56.651Z,18.00
2023-02-28T15:05:35.166Z,23.25
2023-02-28T15:08:17.187Z,27.00
2023-02-28T15:10:46.888Z,23.50
2023-02-28T15:13:16.421Z,43.67
2023-02-28T15:16:03.885Z,28.67
2023-02-28T15:18:43.139Z,40.33
2023-02-28T15:21:16.005Z,40.33
2023-02-28T15:23:49.502Z,36.67
2023-02-28T15:26:23.636Z,29.67
2023-02-28T15:29:00.108Z,39.00
2023-02-28T15:31:50.274Z,46.67
2023-02-28T15:34:43.543Z,36.33
2023-02-28T15:37:47.755Z,44.67
2023-02-28T15:40:19.251Z,36.67
2023-02-28T15:43:16.829Z,37.67
2023-02-28T15:45:51.349Z,32.00
2023-02-28T15:48:31.076Z,30.33
2023-02-28T15:51:07.636Z,23.00
2023-02-28T15:53:43.532Z,31.00
2023-02-28T15:56:31.913Z,32.33
2023-02-28T15:59:08.267Z,29.00
2023-02-28T16:01:37.037Z,25.33
2023-02-28T16:04:15.542Z,31.33
2023-02-28T16:07:03.349Z,32.67
2023-02-28T16:09:34.273Z,28.33
2023-02-28T16:12:04.316Z,30.00
2023-02-28T16:14:32.120Z,28.67
2023-02-28T16:17:06.158Z,34.33
2023-02-28T16:19:34.696Z,38.67
2023-02-28T16:22:02.354Z,40.00
2023-02-28T16:24:29.322Z,33.67
2023-02-28T16:26:58.171Z,39.67
2023-02-28T16:29:36.041Z,44.00
2023-02-28T16:32:06.405Z,53.00
2023-02-28T16:34:33.643Z,57.25
2023-02-28T16:37:00.883Z,62.25
2023-02-28T16:39:27.813Z,60.00
2023-02-28T16:41:54.732Z,52.67
2023-02-28T16:44:36.630Z,52.33
2023-02-28T16:47:05.348Z,58.75
2023-02-28T16:49:32.687Z,57.00
2023-02-28T16:51:59.685Z,49.33
2023-02-28T16:54:26.691Z,59.00
2023-02-28T16:56:54.039Z,60.50
2023-02-28T16:59:25.411Z,69.75
2023-02-28T17:01:53.218Z,84.00
2023-02-28T17:04:20.425Z,90.25
2023-02-28T17:06:47.417Z,84.75
2023-02-28T17:09:21.028Z,85.50
2023-02-28T17:11:49.849Z,82.00
2023-02-28T17:14:17.385Z,64.75
2023-02-28T17:16:44.719Z,98.25
2023-02-28T17:19:16.314Z,77.25
2023-02-28T17:21:44.413Z,63.00
2023-02-28T17:24:19.118Z,61.50
2023-02-28T17:26:50.369Z,62.50
2023-02-28T17:29:20.059Z,59.00
2023-02-28T17:31:47.174Z,51.25
2023-02-28T17:34:19.567Z,53.50
2023-02-28T17:36:48.778Z,49.33
2023-02-28T17:39:20.967Z,67.75
2023-02-28T17:41:47.832Z,66.50
2023-02-28T17:44:14.792Z,66.75
2023-02-28T17:46:43.267Z,65.00
2023-02-28T17:49:11.084Z,59.00
2023-02-28T17:51:38.155Z,62.25
2023-02-28T17:54:06.307Z,61.75
2023-02-28T17:56:33.520Z,63.75
2023-02-28T17:59:00.702Z,60.00
2023-02-28T18:01:28.210Z,59.25
2023-02-28T18:03:56.787Z,61.50
2023-02-28T18:06:32.457Z,47.00
2023-02-28T18:08:59.395Z,54.33
2023-02-28T18:11:28.500Z,49.67
2023-02-28T18:13:57.048Z,42.67
2023-02-28T18:16:24.166Z,37.33
2023-02-28T18:18:51.362Z,24.33
2023-02-28T18:21:18.414Z,20.67
2023-02-28T18:23:50.347Z,14.00
2023-02-28T18:26:19.245Z,13.33
2023-02-28T18:28:46.925Z,13.00
2023-02-28T18:31:19.725Z,15.00
2023-02-28T18:33:51.828Z,10.67
2023-02-28T18:36:21.184Z,4.33
2023-02-28T18:38:50.648Z,17.33
2023-02-28T18:41:22.654Z,13.00
2023-02-28T18:43:52.178Z,16.00
2023-02-28T18:46:21.329Z,21.67
2023-02-28T18:48:48.746Z,17.00
2023-02-28T18:51:18.499Z,21.00
2023-02-28T18:53:45.670Z,17.00
2023-02-28T18:56:15.721Z,11.00
2023-02-28T18:58:43.243Z,20.00
2023-02-28T19:01:22.345Z,27.33
2023-02-28T19:03:50.803Z,46.00
2023-02-28T19:06:19.138Z,43.00
2023-02-28T19:08:46.186Z,47.00
2023-02-28T19:11:16.382Z,40.00
2023-02-28T19:13:45.912Z,25.00
2023-02-28T19:16:15.026Z,36.33
2023-02-28T19:18:42.696Z,34.67
2023-02-28T19:21:11.459Z,43.00
2023-02-28T19:23:39.590Z,50.25
2023-02-28T19:26:17.854Z,57.00
2023-02-28T19:28:45.066Z,40.75
2023-02-28T19:31:21.974Z,44.00
2023-02-28T19:33:49.048Z,49.75
2023-02-28T19:36:16.165Z,47.00
2023-02-28T19:38:44.920Z,50.00
2023-02-28T19:41:14.030Z,52.50
2023-02-28T19:43:41.211Z,45.75
2023-02-28T19:46:09.833Z,44.00
2023-02-28T19:48:37.197Z,46.25
2023-02-28T19:51:07.566Z,56.75
2023-02-28T19:53:36.646Z,61.75
2023-02-28T19:56:06.787Z,61.75
2023-02-28T19:58:34.419Z,70.50
2023-02-28T20:01:13.069Z,77.25
2023-02-28T20:03:40.866Z,90.25
2023-02-28T20:06:11.247Z,83.00
2023-02-28T20:08:38.947Z,72.25
2023-02-28T20:11:08.193Z,66.25
2023-02-28T20:13:35.607Z,61.25
2023-02-28T20:16:06.280Z,58.75
2023-02-28T20:18:34.382Z,47.25
2023-02-28T20:21:02.257Z,45.25
2023-02-28T20:23:29.622Z,41.33
2023-02-28T20:26:00.899Z,40.00
2023-02-28T20:28:28.126Z,45.75
2023-02-28T20:30:55.954Z,48.75
2023-02-28T20:33:23.031Z,44.25
2023-02-28T20:35:52.951Z,47.00
2023-02-28T20:38:20.556Z,38.00
2023-02-28T20:40:47.490Z,36.33
2023-02-28T20:43:14.408Z,29.67
2023-02-28T20:45:51.077Z,28.00
2023-02-28T20:48:17.989Z,28.75
2023-02-28T20:50:52.035Z,43.50
2023-02-28T20:53:19.498Z,51.00
2023-02-28T20:56:12.011Z,49.75
2023-02-28T20:58:38.939Z,48.25
2023-02-28T21:01:16.285Z,53.25
2023-02-28T21:03:51.580Z,64.25
2023-02-28T21:06:21.149Z,51.25
2023-02-28T21:08:49.107Z,54.00
2023-02-28T21:11:19.321Z,52.25
2023-02-28T21:13:47.673Z,56.50
2023-02-28T21:16:18.211Z,43.00
2023-02-28T21:18:46.227Z,40.00
2023-02-28T21:21:15.899Z,45.00
2023-02-28T21:23:45.419Z,39.50
2023-02-28T21:26:14.866Z,35.00
2023-02-28T21:28:44.364Z,24.33
2023-02-28T21:31:14.988Z,14.33
2023-02-28T21:33:42.133Z,20.00
2023-02-28T21:36:12.416Z,28.00
2023-02-28T21:38:41.099Z,32.00
2023-02-28T21:41:09.549Z,38.33
2023-02-28T21:43:36.804Z,53.00
2023-02-28T21:46:05.874Z,58.75
2023-02-28T21:48:33.243Z,51.75
2023-02-28T21:51:06.926Z,66.25
2023-02-28T21:53:36.018Z,71.25
2023-02-28T21:56:05.294Z,64.50
2023-02-28T21:58:32.880Z,57.75
2023-02-28T22:01:15.141Z,47.00
2023-02-28T22:03:43.298Z,47.50
2023-02-28T22:06:22.466Z,54.00
2023-02-28T22:08:53.410Z,54.00
2023-02-28T22:11:21.751Z,43.25
2023-02-28T22:13:49.106Z,33.50
2023-02-28T22:16:18.388Z,51.75
2023-02-28T22:18:45.921Z,48.50
2023-02-28T22:21:14.967Z,68.75
2023-02-28T22:23:43.281Z,67.25
2023-02-28T22:26:12.347Z,56.00
2023-02-28T22:28:39.857Z,60.25
2023-02-28T22:31:36.726Z,65.25
2023-02-28T22:34:09.169Z,72.00
2023-02-28T22:36:36.812Z,89.75
2023-02-28T22:39:05.240Z,70.50
2023-02-28T22:41:32.919Z,66.00
2023-02-28T22:44:02.335Z,65.75
2023-02-28T22:46:31.620Z,58.50
2023-02-28T22:49:03.244Z,57.50
2023-02-28T22:51:30.325Z,55.50
2023-02-28T22:53:58.549Z,56.75
2023-02-28T22:56:27.834Z,63.00
2023-02-28T22:58:57.407Z,60.50
2023-02-28T23:01:26.588Z,72.50
2023-02-28T23:03:54.255Z,78.00
2023-02-28T23:06:24.420Z,72.75
2023-02-28T23:08:53.763Z,72.75
2023-02-28T23:11:23.708Z,69.25
2023-02-28T23:14:00.385Z,84.00
2023-02-28T23:16:30.737Z,71.50
2023-02-28T23:19:00.055Z,78.00
2023-02-28T23:21:27.636Z,72.75
2023-02-28T23:23:55.052Z,58.50
2023-02-28T23:26:22.230Z,64.25
2023-02-28T23:28:49.268Z,60.00
2023-02-28T23:31:16.420Z,47.25
2023-02-28T23:33:43.434Z,44.00
2023-02-28T23:36:12.754Z,46.00
2023-02-28T23:38:45.636Z,41.50
2023-02-28T23:41:13.584Z,45.75
2023-02-28T23:43:41.054Z,34.50
2023-02-28T23:46:09.760Z,37.00
2023-02-28T23:48:36.785Z,45.25
2023-02-28T23:51:09.463Z,41.50
2023-02-28T23:53:38.859Z,61.75
2023-02-28T23:56:07.392Z,51.75
2023-02-28T23:58:34.776Z,55.00
